Main page
METAR-TAF:

METAR-TAF

Airports :

Ardabil, Iran

Ardabil Airport

latitude: 38-19-35N, longitude: 048-25-28E, elevation: 1315 m

Current weather observation

The report was made 40 minutes ago, at 19:51 UTC
Calm wind
Temperature 11°C
Humidity 71%
Pressure 1019 hPa
Visibility 10 km or more
Few clouds at a height of 4000 ft
Scattered clouds at a height of 17000 ft

METAR: OITL 301951Z 00000KT 9999 FEW040 SCT170 11/06 Q1019

Time: 01:01 (20:31 UTC)


TAF: missing

Weather observations and forecasts of more than 4000 airports (METAR and TAF reports).

The available stations are represented by yellow and red dots on the map.

Hover mouse over dot to see the name of the station.

Then click to see weather observations and forecasts.

To change the map : click on the green buttons with a black cross to zoom in, on the green button with a dash to zoom out, or on the green arrows for adjacent maps.


METAR-TAF: